Cricklade, United Kingdom
Current Conditions -  °F | °C
As of 10:34 AM on Saturday 22 Nov 2014 (Local Time) from EGVA Reporting Station
Overcast Overcast  
Wind Chill: 57°   Ceiling: 1900
Heat Index: 57°   Visibility: 6mi
Dew Point: 55°   Wind: 13mph
Humidity: 94%   Direction: 200°SSW
Pressure: 29.86"   Gusts: NA
Location:  51.64°N, 1.86°W
Report Text: EGVA 221034Z AUTO 20011KT 9999 FEW011 BKN019 OVC024 14/13 A2986 RMK AO2 RAB0958E0959DZE0958 BKN V OVC $
Loading
Personal Weather Stations






























Interactive Weather Map New forecast layout! Learn more

10-Day Weather Forecast

Advertisements
Track Severe Weather on mobile